createdAt,value
2023-03-08T00:00:40.993Z,5.00
2023-03-08T00:03:07.774Z,5.13
2023-03-08T00:05:38.854Z,4.67
2023-03-08T00:08:05.546Z,5.30
2023-03-08T00:10:32.850Z,5.23
2023-03-08T00:12:59.526Z,5.70
2023-03-08T00:15:26.266Z,5.40
2023-03-08T00:17:52.993Z,5.93
2023-03-08T00:20:19.626Z,5.37
2023-03-08T00:22:46.372Z,4.77
2023-03-08T00:25:16.485Z,5.50
2023-03-08T00:27:43.536Z,5.60
2023-03-08T00:30:10.924Z,5.93
2023-03-08T00:32:37.530Z,6.00
2023-03-08T00:35:04.515Z,6.20
2023-03-08T00:37:31.200Z,7.03
2023-03-08T00:39:57.854Z,6.37
2023-03-08T00:42:24.904Z,6.70
2023-03-08T00:44:51.921Z,5.93
2023-03-08T00:47:18.602Z,6.20
2023-03-08T00:49:45.281Z,5.97
2023-03-08T00:52:11.905Z,6.63
2023-03-08T00:54:38.737Z,6.83
2023-03-08T00:57:05.415Z,6.10
2023-03-08T00:59:32.450Z,6.43
2023-03-08T01:02:00.752Z,5.93
2023-03-08T01:04:27.454Z,5.73
2023-03-08T01:06:54.121Z,5.73
2023-03-08T01:09:20.728Z,5.30
2023-03-08T01:11:47.267Z,5.17
2023-03-08T01:14:13.833Z,5.03
2023-03-08T01:16:40.977Z,5.50
2023-03-08T01:19:07.615Z,5.90
2023-03-08T01:21:34.644Z,4.80
2023-03-08T01:24:01.463Z,4.63
2023-03-08T01:26:28.566Z,4.90
2023-03-08T01:28:55.967Z,5.10
2023-03-08T01:31:26.969Z,4.63
2023-03-08T01:33:55.365Z,4.90
2023-03-08T01:36:23.260Z,4.40
2023-03-08T01:38:50.225Z,4.23
2023-03-08T01:41:18.983Z,4.30
2023-03-08T01:43:46.147Z,4.50
2023-03-08T01:46:19.492Z,4.60
2023-03-08T01:48:51.086Z,4.10
2023-03-08T01:51:26.260Z,4.30
2023-03-08T01:53:53.857Z,3.87
2023-03-08T01:56:20.773Z,3.30
2023-03-08T01:58:50.665Z,4.07
2023-03-08T02:01:18.643Z,3.90
2023-03-08T02:03:46.914Z,4.23
2023-03-08T02:06:16.592Z,4.23
2023-03-08T02:08:43.583Z,3.80
2023-03-08T02:11:11.656Z,3.63
2023-03-08T02:13:40.387Z,3.20
2023-03-08T02:16:09.930Z,3.80
2023-03-08T02:18:37.488Z,3.50
2023-03-08T02:21:05.993Z,3.57
2023-03-08T02:23:33.830Z,3.60
2023-03-08T02:26:01.772Z,3.87
2023-03-08T02:28:29.207Z,3.37
2023-03-08T02:30:56.330Z,3.80
2023-03-08T02:33:23.269Z,4.23
2023-03-08T02:35:50.289Z,4.00
2023-03-08T02:38:18.720Z,3.43
2023-03-08T02:40:46.237Z,3.33
2023-03-08T02:43:12.911Z,3.70
2023-03-08T02:45:40.188Z,4.00
2023-03-08T02:48:08.963Z,4.23
2023-03-08T02:50:36.754Z,4.73
2023-03-08T02:53:06.558Z,4.63
2023-03-08T02:55:36.315Z,4.27
2023-03-08T02:58:08.958Z,4.97
2023-03-08T03:00:36.476Z,5.13
2023-03-08T03:03:03.566Z,5.37
2023-03-08T03:05:30.241Z,4.70
2023-03-08T03:07:59.285Z,4.97
2023-03-08T03:10:27.812Z,4.90
2023-03-08T03:12:55.617Z,4.67
2023-03-08T03:15:25.898Z,4.77
2023-03-08T03:17:56.910Z,5.63
2023-03-08T03:20:23.577Z,5.10
2023-03-08T03:22:50.212Z,4.33
2023-03-08T03:25:19.228Z,5.20
2023-03-08T03:27:47.756Z,5.47
2023-03-08T03:30:15.633Z,7.03
2023-03-08T03:32:43.636Z,6.63
2023-03-08T03:35:11.442Z,6.10
2023-03-08T03:37:38.724Z,6.00
2023-03-08T03:40:06.560Z,6.20
2023-03-08T03:42:33.376Z,6.50
2023-03-08T03:45:06.621Z,5.43
2023-03-08T03:47:33.638Z,6.60
2023-03-08T03:50:03.947Z,5.90
2023-03-08T03:52:39.725Z,5.93
2023-03-08T03:55:06.771Z,6.57
2023-03-08T03:57:33.823Z,5.87
2023-03-08T04:00:00.772Z,4.97
2023-03-08T04:02:28.357Z,5.00
2023-03-08T04:04:58.621Z,4.53
2023-03-08T04:07:28.944Z,4.73
2023-03-08T04:09:58.189Z,5.07
2023-03-08T04:12:25.439Z,4.60
2023-03-08T04:14:53.227Z,4.00
2023-03-08T04:17:20.853Z,4.53
2023-03-08T04:19:51.600Z,4.03
2023-03-08T04:22:19.642Z,3.97
2023-03-08T04:24:53.069Z,4.23
2023-03-08T04:27:29.476Z,4.40
2023-03-08T04:29:56.328Z,4.30
2023-03-08T04:32:23.811Z,4.57
2023-03-08T04:34:55.713Z,3.90
2023-03-08T04:37:25.724Z,4.87
2023-03-08T04:39:56.658Z,5.30
2023-03-08T04:42:24.352Z,5.57
2023-03-08T04:44:52.076Z,4.33
2023-03-08T04:47:21.719Z,4.07
2023-03-08T04:49:48.749Z,4.17
2023-03-08T04:52:15.580Z,4.07
2023-03-08T04:54:44.282Z,4.87
2023-03-08T04:57:21.297Z,5.70
2023-03-08T04:59:50.015Z,6.37
2023-03-08T05:02:16.959Z,7.07
2023-03-08T05:04:45.660Z,6.93
2023-03-08T05:07:12.470Z,6.40
2023-03-08T05:09:39.404Z,7.00
2023-03-08T05:12:06.335Z,7.07
2023-03-08T05:14:48.336Z,5.80
2023-03-08T05:17:15.020Z,5.53
2023-03-08T05:19:41.711Z,3.90
2023-03-08T05:22:09.195Z,5.07
2023-03-08T05:24:42.547Z,3.07
2023-03-08T05:27:11.826Z,3.60
2023-03-08T05:29:39.666Z,3.50
2023-03-08T05:32:06.734Z,3.90
2023-03-08T05:34:34.340Z,3.47
2023-03-08T05:37:03.611Z,3.83
2023-03-08T05:39:32.854Z,4.37
2023-03-08T05:42:05.669Z,3.53
2023-03-08T05:44:38.427Z,3.93
2023-03-08T05:47:07.229Z,4.50
2023-03-08T05:49:33.935Z,4.83
2023-03-08T05:52:01.206Z,4.57
2023-03-08T05:54:28.827Z,4.60
2023-03-08T05:56:59.920Z,4.57
2023-03-08T05:59:27.609Z,4.90
2023-03-08T06:01:58.192Z,4.50
2023-03-08T06:04:44.208Z,4.10
2023-03-08T06:07:12.749Z,4.60
2023-03-08T06:09:43.771Z,4.50
2023-03-08T06:12:14.782Z,3.97
2023-03-08T06:14:44.120Z,3.40
2023-03-08T06:17:12.399Z,3.97
2023-03-08T06:19:43.180Z,4.10
2023-03-08T06:22:11.835Z,3.80
2023-03-08T06:24:38.857Z,3.67
2023-03-08T06:27:08.214Z,4.20
2023-03-08T06:29:36.372Z,3.77
2023-03-08T06:32:03.769Z,4.20
2023-03-08T06:34:32.209Z,4.60
2023-03-08T06:37:00.226Z,4.20
2023-03-08T06:39:31.768Z,4.43
2023-03-08T06:42:02.762Z,5.03
2023-03-08T06:44:30.972Z,4.13
2023-03-08T06:46:57.675Z,4.53
2023-03-08T06:49:25.270Z,4.40
2023-03-08T06:51:51.970Z,4.73
2023-03-08T06:54:18.778Z,4.87
2023-03-08T06:56:47.028Z,4.50
2023-03-08T06:59:14.054Z,4.03
2023-03-08T07:01:40.937Z,4.73
2023-03-08T07:04:07.722Z,5.00
2023-03-08T07:06:34.484Z,4.87
2023-03-08T07:09:01.297Z,4.80
2023-03-08T07:11:29.669Z,4.87
2023-03-08T07:13:57.060Z,4.77
2023-03-08T07:16:23.826Z,4.90
2023-03-08T07:18:50.492Z,5.57
2023-03-08T07:21:17.641Z,5.43
2023-03-08T07:23:44.327Z,5.67
2023-03-08T07:26:11.918Z,5.33
2023-03-08T07:28:38.918Z,5.70
2023-03-08T07:31:06.051Z,6.40
2023-03-08T07:33:35.207Z,6.20
2023-03-08T07:36:02.641Z,6.57
2023-03-08T07:38:29.748Z,6.60
2023-03-08T07:40:57.144Z,6.67
2023-03-08T07:43:24.255Z,7.37
2023-03-08T07:45:59.211Z,7.13
2023-03-08T07:48:25.835Z,7.73
2023-03-08T07:50:52.743Z,6.87
2023-03-08T07:53:19.418Z,7.67
2023-03-08T07:55:46.159Z,7.40
2023-03-08T07:58:12.974Z,8.77
2023-03-08T08:00:39.511Z,6.27
2023-03-08T08:03:06.170Z,7.20
2023-03-08T08:05:34.834Z,6.63
2023-03-08T08:08:01.508Z,7.30
2023-03-08T08:10:29.066Z,7.17
2023-03-08T08:12:55.684Z,7.27
2023-03-08T08:15:25.295Z,7.47
2023-03-08T08:17:52.492Z,6.60
2023-03-08T08:20:20.647Z,7.33
2023-03-08T08:22:47.719Z,7.13
2023-03-08T08:25:14.793Z,7.23
2023-03-08T08:27:41.484Z,7.33
2023-03-08T08:30:12.050Z,7.70
2023-03-08T08:32:38.743Z,7.80
2023-03-08T08:35:06.564Z,11.03
2023-03-08T08:37:33.283Z,8.23
2023-03-08T08:40:00.357Z,8.30
2023-03-08T08:42:26.952Z,9.33
2023-03-08T08:44:53.702Z,7.80
2023-03-08T08:47:20.384Z,8.90
2023-03-08T08:49:47.071Z,7.20
2023-03-08T08:52:13.632Z,8.43
2023-03-08T08:54:40.405Z,9.20
2023-03-08T08:57:07.867Z,9.13
2023-03-08T08:59:34.562Z,9.43
2023-03-08T09:02:01.840Z,9.33
2023-03-08T09:04:28.605Z,8.13
2023-03-08T09:06:55.363Z,8.87
2023-03-08T09:09:22.080Z,10.57
2023-03-08T09:11:54.762Z,9.43
2023-03-08T09:14:22.285Z,9.70
2023-03-08T09:16:49.007Z,9.23
2023-03-08T09:19:15.715Z,9.13
2023-03-08T09:21:42.370Z,9.50
2023-03-08T09:24:10.540Z,9.77
2023-03-08T09:26:37.437Z,10.80
2023-03-08T09:29:07.901Z,10.80
2023-03-08T09:31:37.104Z,9.53
2023-03-08T09:34:09.312Z,9.40
2023-03-08T09:36:36.864Z,11.80
2023-03-08T09:39:04.095Z,14.13
2023-03-08T09:41:33.439Z,13.07
2023-03-08T09:44:11.008Z,10.50
2023-03-08T09:46:52.570Z,12.97
2023-03-08T09:49:21.765Z,13.27
2023-03-08T09:51:50.232Z,8.70
2023-03-08T09:54:20.252Z,12.33
2023-03-08T09:56:48.381Z,11.60
2023-03-08T09:59:23.974Z,13.63
2023-03-08T10:02:10.489Z,14.40
2023-03-08T10:05:06.159Z,9.60
2023-03-08T10:08:01.498Z,13.30
2023-03-08T10:10:37.973Z,9.87
2023-03-08T10:13:20.191Z,9.50
2023-03-08T10:15:49.930Z,13.87
2023-03-08T10:18:21.208Z,10.20
2023-03-08T10:20:48.250Z,12.97
2023-03-08T10:23:16.282Z,10.63
2023-03-08T10:25:43.317Z,8.13
2023-03-08T10:28:13.646Z,11.03
2023-03-08T10:30:42.790Z,11.63
2023-03-08T10:33:11.287Z,11.00
2023-03-08T10:35:39.442Z,13.67
2023-03-08T10:38:15.250Z,10.37
2023-03-08T10:40:41.873Z,9.33
2023-03-08T10:43:15.023Z,9.47
2023-03-08T10:45:41.729Z,9.07
2023-03-08T10:48:17.974Z,9.37
2023-03-08T10:50:44.517Z,8.80
2023-03-08T10:53:20.897Z,7.70
2023-03-08T10:55:52.161Z,9.93
2023-03-08T10:58:32.854Z,9.43
2023-03-08T11:01:00.876Z,8.80
2023-03-08T11:03:27.818Z,10.30
2023-03-08T11:05:59.361Z,9.40
2023-03-08T11:08:28.215Z,10.43
2023-03-08T11:11:01.914Z,10.50
2023-03-08T11:13:36.876Z,9.20
2023-03-08T11:16:09.444Z,10.23
2023-03-08T11:18:39.559Z,9.57
2023-03-08T11:21:10.049Z,10.77
2023-03-08T11:23:43.813Z,9.10
2023-03-08T11:26:29.274Z,8.90
2023-03-08T11:28:55.951Z,9.03
2023-03-08T11:31:31.916Z,8.53
2023-03-08T11:33:58.760Z,8.20
2023-03-08T11:36:28.738Z,9.63
2023-03-08T11:39:02.450Z,9.43
2023-03-08T11:41:29.032Z,10.30
2023-03-08T11:44:17.252Z,9.73
2023-03-08T11:47:02.668Z,11.17
2023-03-08T11:49:47.696Z,12.23
2023-03-08T11:52:22.304Z,10.93
2023-03-08T11:55:16.163Z,11.90
2023-03-08T11:57:45.267Z,11.53
2023-03-08T12:00:16.421Z,11.67
2023-03-08T12:02:46.162Z,11.60
2023-03-08T12:05:14.826Z,10.10
2023-03-08T12:07:56.127Z,10.73
2023-03-08T12:10:24.039Z,10.57
2023-03-08T12:12:50.678Z,10.53
2023-03-08T12:15:28.879Z,10.27
2023-03-08T12:18:18.547Z,10.87
2023-03-08T12:20:46.453Z,10.73
2023-03-08T12:23:31.736Z,11.63
2023-03-08T12:26:18.692Z,12.47
2023-03-08T12:28:48.434Z,13.93
2023-03-08T12:31:27.754Z,14.23
2023-03-08T12:33:56.153Z,13.77
2023-03-08T12:36:23.064Z,13.37
2023-03-08T12:38:55.761Z,14.37
2023-03-08T12:41:30.104Z,14.50
2023-03-08T12:43:59.781Z,13.43
2023-03-08T12:46:26.415Z,12.37
2023-03-08T12:48:53.981Z,17.53
2023-03-08T12:51:24.103Z,20.70
2023-03-08T12:53:50.760Z,13.07
2023-03-08T12:56:20.177Z,14.23
2023-03-08T12:59:16.148Z,14.70
2023-03-08T13:01:43.760Z,13.63
2023-03-08T13:04:39.034Z,13.53
2023-03-08T13:07:09.763Z,27.83
2023-03-08T13:09:42.415Z,11.83
2023-03-08T13:12:08.979Z,13.80
2023-03-08T13:14:41.784Z,14.13
2023-03-08T13:17:27.088Z,10.00
2023-03-08T13:19:54.389Z,20.93
2023-03-08T13:22:24.959Z,12.23
2023-03-08T13:24:56.842Z,12.87
2023-03-08T13:27:35.936Z,12.70
2023-03-08T13:30:17.231Z,13.23
2023-03-08T13:32:44.198Z,12.20
2023-03-08T13:35:14.675Z,12.73
2023-03-08T13:37:41.356Z,13.50
2023-03-08T13:40:16.372Z,11.67
2023-03-08T13:42:55.535Z,14.00
2023-03-08T13:45:22.641Z,13.40
2023-03-08T13:47:49.965Z,13.63
2023-03-08T13:50:17.618Z,13.63
2023-03-08T13:52:44.209Z,13.50
2023-03-08T13:55:15.900Z,12.37
2023-03-08T13:57:42.816Z,11.77
2023-03-08T14:00:18.890Z,11.47
2023-03-08T14:02:46.985Z,13.23
2023-03-08T14:05:16.982Z,10.63
2023-03-08T14:07:43.628Z,13.37
2023-03-08T14:10:13.409Z,14.80
2023-03-08T14:12:40.152Z,13.50
2023-03-08T14:15:07.151Z,11.93
2023-03-08T14:17:35.179Z,17.43
2023-03-08T14:20:05.199Z,13.77
2023-03-08T14:22:39.695Z,14.27
2023-03-08T14:25:07.639Z,13.53
2023-03-08T14:27:38.964Z,13.80
2023-03-08T14:30:14.221Z,29.13
2023-03-08T14:32:42.717Z,26.50
2023-03-08T14:35:19.972Z,15.20
2023-03-08T14:37:47.526Z,15.73
2023-03-08T14:40:14.322Z,14.20
2023-03-08T14:42:43.725Z,14.40
2023-03-08T14:45:20.709Z,15.43
2023-03-08T14:47:55.953Z,16.93
2023-03-08T14:50:27.156Z,16.83
2023-03-08T14:52:55.088Z,13.87
2023-03-08T14:55:22.445Z,14.93
2023-03-08T14:57:50.733Z,13.57
2023-03-08T15:00:17.683Z,13.93
2023-03-08T15:02:44.307Z,13.23
2023-03-08T15:05:28.487Z,14.70
2023-03-08T15:07:56.340Z,14.97
2023-03-08T15:10:30.636Z,16.97
2023-03-08T15:12:58.395Z,14.83
2023-03-08T15:15:25.370Z,15.80
2023-03-08T15:17:52.446Z,17.03
2023-03-08T15:20:19.580Z,15.93
2023-03-08T15:22:54.241Z,10.97
2023-03-08T15:25:26.741Z,15.17
2023-03-08T15:27:53.399Z,16.97
2023-03-08T15:30:24.584Z,18.43
2023-03-08T15:32:51.467Z,15.57
2023-03-08T15:35:18.560Z,17.40
2023-03-08T15:37:45.973Z,16.97
2023-03-08T15:40:15.315Z,14.60
2023-03-08T15:42:42.472Z,18.43
2023-03-08T15:45:10.792Z,19.00
2023-03-08T15:47:38.245Z,20.57
2023-03-08T15:50:14.284Z,18.57
2023-03-08T15:52:41.117Z,19.43
2023-03-08T15:55:08.149Z,18.13
2023-03-08T15:57:35.122Z,19.93
2023-03-08T16:00:01.983Z,22.20
2023-03-08T16:02:37.746Z,21.37
2023-03-08T16:05:05.098Z,18.90
2023-03-08T16:07:32.001Z,20.07
2023-03-08T16:09:58.635Z,20.50
2023-03-08T16:12:26.312Z,19.03
2023-03-08T16:14:57.727Z,21.53
2023-03-08T16:17:28.259Z,20.13
2023-03-08T16:19:55.026Z,22.53
2023-03-08T16:22:21.847Z,19.13
2023-03-08T16:24:49.175Z,22.27
2023-03-08T16:27:15.954Z,27.13
2023-03-08T16:29:42.757Z,26.67
2023-03-08T16:32:10.437Z,26.77
2023-03-08T16:34:38.062Z,30.87
2023-03-08T16:37:05.715Z,31.53
2023-03-08T16:39:32.439Z,25.57
2023-03-08T16:41:59.062Z,25.20
2023-03-08T16:44:29.592Z,25.43
2023-03-08T16:46:56.195Z,28.13
2023-03-08T16:49:28.098Z,27.90
2023-03-08T16:51:55.170Z,24.43
2023-03-08T16:54:21.859Z,20.80
2023-03-08T16:56:48.478Z,26.20
2023-03-08T16:59:16.570Z,30.77
2023-03-08T17:01:43.934Z,23.37
2023-03-08T17:04:11.308Z,33.80
2023-03-08T17:06:38.593Z,26.77
2023-03-08T17:09:05.971Z,21.17
2023-03-08T17:11:33.713Z,23.20
2023-03-08T17:14:01.723Z,24.70
2023-03-08T17:16:29.108Z,25.00
2023-03-08T17:18:56.244Z,29.07
2023-03-08T17:21:23.761Z,29.80
2023-03-08T17:23:51.041Z,29.67
2023-03-08T17:26:18.555Z,27.70
2023-03-08T17:28:45.238Z,38.30
2023-03-08T17:31:16.757Z,27.50
2023-03-08T17:33:43.729Z,24.90
2023-03-08T17:36:11.243Z,36.50
2023-03-08T17:38:37.904Z,31.27
2023-03-08T17:41:05.893Z,31.03
2023-03-08T17:43:35.761Z,29.37
2023-03-08T17:46:02.453Z,26.37
2023-03-08T17:48:30.887Z,35.83
2023-03-08T17:51:04.932Z,31.47
2023-03-08T17:53:31.972Z,26.83
2023-03-08T17:56:00.352Z,28.97
2023-03-08T17:58:28.128Z,28.70
2023-03-08T18:00:55.012Z,32.20
2023-03-08T18:03:21.867Z,36.50
2023-03-08T18:05:52.378Z,31.77
2023-03-08T18:08:19.040Z,27.17
2023-03-08T18:10:45.626Z,28.60
2023-03-08T18:13:12.447Z,30.83
2023-03-08T18:15:39.049Z,23.50
2023-03-08T18:18:05.701Z,35.63
2023-03-08T18:20:32.329Z,37.63
2023-03-08T18:22:59.091Z,29.43
2023-03-08T18:25:25.814Z,28.73
2023-03-08T18:27:52.431Z,44.37
2023-03-08T18:30:19.283Z,39.97
2023-03-08T18:32:48.606Z,33.73
2023-03-08T18:35:15.311Z,41.47
2023-03-08T18:37:42.112Z,30.07
2023-03-08T18:40:12.692Z,26.07
2023-03-08T18:42:40.407Z,32.47
2023-03-08T18:45:09.709Z,29.07
2023-03-08T18:47:37.009Z,22.37
2023-03-08T18:50:04.553Z,29.13
2023-03-08T18:52:31.464Z,29.10
2023-03-08T18:54:58.599Z,30.00
2023-03-08T18:57:25.277Z,26.20
2023-03-08T18:59:51.962Z,30.20
2023-03-08T19:02:18.695Z,31.87
2023-03-08T19:04:45.393Z,28.00
2023-03-08T19:07:13.154Z,25.53
2023-03-08T19:09:43.629Z,26.33
2023-03-08T19:12:10.740Z,22.80
2023-03-08T19:14:37.715Z,26.77
2023-03-08T19:17:04.403Z,26.30
2023-03-08T19:19:31.106Z,25.13
2023-03-08T19:21:57.741Z,26.13
2023-03-08T19:24:24.636Z,25.07
2023-03-08T19:26:52.731Z,25.00
2023-03-08T19:29:37.499Z,23.97
2023-03-08T19:32:05.621Z,22.87
2023-03-08T19:34:36.467Z,27.00
2023-03-08T19:37:03.634Z,25.23
2023-03-08T19:39:31.431Z,25.23
2023-03-08T19:41:59.632Z,24.60
2023-03-08T19:44:27.654Z,26.67
2023-03-08T19:46:54.576Z,24.77
2023-03-08T19:49:22.775Z,25.97
2023-03-08T19:51:51.006Z,25.53
2023-03-08T19:54:17.916Z,24.20
2023-03-08T19:56:44.612Z,23.43
2023-03-08T19:59:11.292Z,22.67
2023-03-08T20:01:38.450Z,23.23
2023-03-08T20:04:05.395Z,24.53
2023-03-08T20:06:33.566Z,29.53
2023-03-08T20:09:01.499Z,26.40
2023-03-08T20:11:28.994Z,23.87
2023-03-08T20:13:55.857Z,27.20
2023-03-08T20:16:23.188Z,25.10
2023-03-08T20:18:49.965Z,25.60
2023-03-08T20:21:17.051Z,21.30
2023-03-08T20:23:43.695Z,21.50
2023-03-08T20:26:10.304Z,20.87
2023-03-08T20:28:37.424Z,22.10
2023-03-08T20:31:11.596Z,24.00
2023-03-08T20:33:39.187Z,23.63
2023-03-08T20:36:05.970Z,22.10
2023-03-08T20:38:32.841Z,19.40
2023-03-08T20:41:08.632Z,22.73
2023-03-08T20:43:35.730Z,21.67
2023-03-08T20:46:06.621Z,18.20
2023-03-08T20:48:34.016Z,18.57
2023-03-08T20:51:05.381Z,18.70
2023-03-08T20:53:33.019Z,18.67
2023-03-08T20:55:59.962Z,18.37
2023-03-08T20:58:26.559Z,18.23
2023-03-08T21:00:53.159Z,18.70
2023-03-08T21:03:19.811Z,17.33
2023-03-08T21:05:46.462Z,17.07
2023-03-08T21:08:13.087Z,16.50
2023-03-08T21:10:41.473Z,17.13
2023-03-08T21:13:08.150Z,16.30
2023-03-08T21:15:35.238Z,18.17
2023-03-08T21:18:02.529Z,18.07
2023-03-08T21:20:29.706Z,19.83
2023-03-08T21:22:57.368Z,19.10
2023-03-08T21:25:23.941Z,18.57
2023-03-08T21:27:50.505Z,20.47
2023-03-08T21:30:17.196Z,20.73
2023-03-08T21:32:43.814Z,19.20
2023-03-08T21:35:10.569Z,19.03
2023-03-08T21:37:37.448Z,18.50
2023-03-08T21:40:06.093Z,18.87
2023-03-08T21:42:32.776Z,19.03
2023-03-08T21:44:59.789Z,17.87
2023-03-08T21:47:26.469Z,17.20
2023-03-08T21:49:55.287Z,15.70
2023-03-08T21:52:21.966Z,16.47
2023-03-08T21:54:48.529Z,15.63
2023-03-08T21:57:15.180Z,16.60
2023-03-08T21:59:41.790Z,15.43
2023-03-08T22:02:09.568Z,17.67
2023-03-08T22:04:37.486Z,16.13
2023-03-08T22:07:04.128Z,19.00
2023-03-08T22:09:30.714Z,19.17
2023-03-08T22:11:58.575Z,20.33
2023-03-08T22:14:25.420Z,21.37
2023-03-08T22:16:53.216Z,20.67
2023-03-08T22:19:19.856Z,20.13
2023-03-08T22:21:46.486Z,21.30
2023-03-08T22:24:13.289Z,20.33
2023-03-08T22:26:39.989Z,18.77
2023-03-08T22:29:06.679Z,17.23
2023-03-08T22:31:33.349Z,16.47
2023-03-08T22:34:01.485Z,18.83
2023-03-08T22:36:28.208Z,18.77
2023-03-08T22:38:54.807Z,17.80
2023-03-08T22:41:23.176Z,15.67
2023-03-08T22:43:50.412Z,16.90
2023-03-08T22:46:18.592Z,16.20
2023-03-08T22:48:46.138Z,15.57
2023-03-08T22:51:13.384Z,17.30
2023-03-08T22:53:40.586Z,18.50
2023-03-08T22:56:07.847Z,17.20
2023-03-08T22:58:34.728Z,16.90
2023-03-08T23:01:01.632Z,17.37
2023-03-08T23:03:28.387Z,17.30
2023-03-08T23:05:56.263Z,16.70
2023-03-08T23:08:24.356Z,16.03
2023-03-08T23:10:51.105Z,15.97
2023-03-08T23:13:32.712Z,15.50
2023-03-08T23:15:59.889Z,15.50
2023-03-08T23:18:26.493Z,14.93
2023-03-08T23:20:53.153Z,14.80
2023-03-08T23:23:19.825Z,14.03
2023-03-08T23:25:46.416Z,13.93
2023-03-08T23:28:13.062Z,13.57
2023-03-08T23:30:41.431Z,12.67
2023-03-08T23:33:08.071Z,13.73
2023-03-08T23:35:34.659Z,14.37
2023-03-08T23:38:01.729Z,16.07
2023-03-08T23:40:28.384Z,14.57
2023-03-08T23:42:54.923Z,13.17
2023-03-08T23:45:21.545Z,12.80
2023-03-08T23:47:48.121Z,12.00
2023-03-08T23:50:14.796Z,14.03
2023-03-08T23:52:41.448Z,13.03
2023-03-08T23:55:08.346Z,11.57
2023-03-08T23:57:34.908Z,11.93
